Time;durP1;ratioP1;P1;durP2;ratioP2;P2;SDS_P1;SDS_P2;PMS_P1;PMS_P2;Temp;Humidity;BMP_temperature;BMP_pressure;BME280_temperature;BME280_humidity;BME280_pressure;Samples;Min_cycle;Max_cycle;Signal;HPM_P1;HPM_P2
2022/02/20 00:00:51;;;;;;;5.57;2.20;;;8.70;99.90;;;;;;5020276;28;20250;-80
2022/02/20 00:03:20;;;;;;;4.30;2.00;;;8.80;99.90;;;;;;5020396;28;20256;-79
2022/02/20 00:05:46;;;;;;;6.30;2.70;;;8.70;99.90;;;;;;5019201;28;20292;-79
2022/02/20 00:08:12;;;;;;;7.23;1.70;;;8.70;99.90;;;;;;5019715;28;20424;-79
2022/02/20 00:10:38;;;;;;;7.77;2.37;;;8.80;99.90;;;;;;5019131;28;20420;-79
2022/02/20 00:13:04;;;;;;;10.10;3.87;;;8.80;99.90;;;;;;5019436;28;20963;-78
2022/02/20 00:15:31;;;;;;;6.53;2.80;;;8.80;99.90;;;;;;5018897;28;20181;-79
2022/02/20 00:17:58;;;;;;;7.80;3.10;;;8.80;99.90;;;;;;5018466;28;20444;-79
2022/02/20 00:20:31;;;;;;;4.97;2.00;;;8.80;99.90;;;;;;5021776;28;20435;-79
2022/02/20 00:23:02;;;;;;;4.87;2.03;;;8.80;99.90;;;;;;5022795;28;20464;-80
2022/02/20 00:25:31;;;;;;;6.50;2.30;;;8.50;99.90;;;;;;5022276;28;20459;-79
2022/02/20 00:28:02;;;;;;;10.23;2.10;;;8.50;99.90;;;;;;5021982;28;20424;-79
2022/02/20 00:30:28;;;;;;;7.10;2.40;;;8.40;99.90;;;;;;5022913;28;20430;-79
2022/02/20 00:32:58;;;;;;;9.57;2.93;;;8.30;99.90;;;;;;5022620;28;20428;-79
2022/02/20 00:35:25;;;;;;;4.77;1.57;;;8.20;99.90;;;;;;5024361;28;20427;-79
2022/02/20 00:37:51;;;;;;;4.13;1.70;;;8.20;99.90;;;;;;5028814;28;20435;-79
2022/02/20 00:40:17;;;;;;;3.70;1.43;;;8.10;99.90;;;;;;5027363;28;20423;-79
2022/02/20 00:42:43;;;;;;;3.30;1.30;;;8.00;99.90;;;;;;5027423;28;20177;-79
2022/02/20 00:45:09;;;;;;;13.83;2.63;;;8.00;99.90;;;;;;5025729;28;20423;-79
2022/02/20 00:47:35;;;;;;;3.10;1.57;;;7.90;99.90;;;;;;5026155;28;21016;-79
2022/02/20 00:50:01;;;;;;;4.57;1.70;;;7.90;99.90;;;;;;5025536;28;20428;-79
2022/02/20 00:52:26;;;;;;;3.60;2.07;;;7.70;99.90;;;;;;5024900;28;20189;-80
2022/02/20 00:54:52;;;;;;;4.00;1.67;;;7.70;99.90;;;;;;5023939;28;20431;-79
2022/02/20 00:57:20;;;;;;;4.33;1.97;;;7.70;99.90;;;;;;5023842;28;20204;-79
2022/02/20 00:59:46;;;;;;;3.83;1.63;;;7.60;99.90;;;;;;5023693;28;20192;-79
2022/02/20 01:02:12;;;;;;;4.77;2.00;;;7.60;99.90;;;;;;5024751;28;20457;-80
2022/02/20 01:04:37;;;;;;;6.93;1.90;;;7.40;99.90;;;;;;5024986;28;20232;-79
2022/02/20 01:07:03;;;;;;;4.80;2.07;;;7.40;99.90;;;;;;5051672;23;20515;-81
2022/02/20 01:09:29;;;;;;;4.80;2.00;;;7.40;99.90;;;;;;5053756;28;20190;-82
2022/02/20 01:11:55;;;;;;;6.07;1.80;;;7.40;99.90;;;;;;5053664;28;20781;-82
2022/02/20 01:14:20;;;;;;;5.30;2.10;;;7.30;99.90;;;;;;5054884;28;20179;-82
2022/02/20 01:16:46;;;;;;;4.30;2.23;;;7.30;99.90;;;;;;5054470;28;20641;-82
2022/02/20 01:19:11;;;;;;;8.50;2.67;;;7.20;99.90;;;;;;5054850;28;20187;-81
2022/02/20 01:21:37;;;;;;;3.50;2.00;;;7.20;99.90;;;;;;5054922;28;20174;-81
2022/02/20 01:24:03;;;;;;;3.37;2.10;;;7.10;99.90;;;;;;5053357;28;20210;-82
2022/02/20 01:26:29;;;;;;;9.40;2.57;;;7.00;99.90;;;;;;5054291;28;20538;-82
2022/02/20 01:28:54;;;;;;;4.80;2.33;;;7.00;99.90;;;;;;5053281;28;20483;-81
2022/02/20 01:31:20;;;;;;;4.97;2.40;;;7.00;99.90;;;;;;5052551;28;20525;-82
2022/02/20 01:33:45;;;;;;;6.30;2.60;;;7.00;99.90;;;;;;5054472;28;20180;-82
2022/02/20 01:36:11;;;;;;;4.13;2.33;;;7.00;99.90;;;;;;5054235;28;20179;-82
2022/02/20 01:38:37;;;;;;;5.63;2.50;;;6.90;99.90;;;;;;5052880;28;20184;-82
2022/02/20 01:41:03;;;;;;;6.30;2.80;;;6.90;99.90;;;;;;5054919;28;20206;-82
2022/02/20 01:43:29;;;;;;;6.20;2.70;;;6.90;99.90;;;;;;5052872;28;20579;-81
2022/02/20 01:45:55;;;;;;;6.63;2.37;;;6.90;99.90;;;;;;5053018;28;20421;-82
2022/02/20 01:48:21;;;;;;;4.60;2.30;;;6.90;99.90;;;;;;5052681;28;20203;-82
2022/02/20 01:50:47;;;;;;;5.57;2.87;;;6.80;99.90;;;;;;5054267;28;20412;-82
2022/02/20 01:53:13;;;;;;;6.63;3.73;;;6.90;99.90;;;;;;5054175;28;20179;-82
2022/02/20 01:55:39;;;;;;;6.00;3.60;;;6.90;99.90;;;;;;5052832;28;20423;-82
2022/02/20 01:58:05;;;;;;;7.47;3.80;;;6.70;99.90;;;;;;5053778;28;20426;-82
2022/02/20 02:00:30;;;;;;;6.33;3.30;;;6.70;99.90;;;;;;5052742;28;20413;-82
2022/02/20 02:02:56;;;;;;;5.90;3.80;;;6.60;99.90;;;;;;5052726;28;20211;-81
2022/02/20 02:05:22;;;;;;;5.90;3.27;;;6.50;99.90;;;;;;5053426;28;20187;-82
2022/02/20 02:07:50;;;;;;;5.43;3.93;;;6.50;99.90;;;;;;5052664;28;20266;-82
2022/02/20 02:10:16;;;;;;;8.50;3.57;;;6.50;99.90;;;;;;5053539;28;21012;-82
2022/02/20 02:12:42;;;;;;;5.10;3.70;;;6.50;99.90;;;;;;5053157;28;20513;-82
2022/02/20 02:15:09;;;;;;;5.07;3.27;;;6.40;99.90;;;;;;5054689;28;20172;-82
2022/02/20 02:17:35;;;;;;;6.90;4.20;;;6.30;99.90;;;;;;5053895;28;20210;-82
2022/02/20 02:20:02;;;;;;;6.40;3.70;;;6.20;99.90;;;;;;5052906;28;20858;-82
2022/02/20 02:22:29;;;;;;;8.07;3.60;;;6.20;99.90;;;;;;5054279;28;20411;-82
2022/02/20 02:24:57;;;;;;;10.77;4.27;;;6.20;99.90;;;;;;5052702;28;20493;-82
2022/02/20 02:27:23;;;;;;;6.20;3.87;;;6.10;99.90;;;;;;5052284;28;20918;-82
2022/02/20 02:29:49;;;;;;;5.87;4.17;;;6.00;99.90;;;;;;5054048;28;20944;-82
2022/02/20 02:32:16;;;;;;;5.83;3.97;;;6.00;99.90;;;;;;5052544;28;20418;-82
2022/02/20 02:34:43;;;;;;;7.20;3.50;;;5.90;99.90;;;;;;5052508;28;20939;-82
2022/02/20 02:37:09;;;;;;;7.83;4.07;;;5.80;99.90;;;;;;5053175;28;20471;-82
2022/02/20 02:39:35;;;;;;;6.77;4.77;;;5.80;99.90;;;;;;5049855;28;20479;-82
2022/02/20 02:42:02;;;;;;;7.70;4.30;;;5.80;99.90;;;;;;5052342;28;20448;-82
2022/02/20 02:44:28;;;;;;;5.60;4.00;;;5.70;99.90;;;;;;5051429;28;20460;-82
2022/02/20 02:46:53;;;;;;;7.90;4.57;;;5.70;99.90;;;;;;5051506;28;20431;-82
2022/02/20 02:49:19;;;;;;;8.07;4.17;;;5.70;99.90;;;;;;5053351;28;20178;-82
2022/02/20 02:51:45;;;;;;;8.23;5.07;;;5.60;99.90;;;;;;5052163;28;20265;-81
2022/02/20 02:54:12;;;;;;;9.20;4.37;;;5.50;99.90;;;;;;5052122;28;20220;-82
2022/02/20 02:56:38;;;;;;;9.70;4.67;;;5.50;99.90;;;;;;5052690;28;20194;-82
2022/02/20 02:59:05;;;;;;;7.70;4.13;;;5.50;99.90;;;;;;5052128;28;20519;-82
2022/02/20 03:01:31;;;;;;;13.20;4.77;;;5.50;99.90;;;;;;5052013;28;20421;-83
2022/02/20 03:03:57;;;;;;;7.00;4.10;;;5.50;99.90;;;;;;5051819;28;21022;-82
2022/02/20 03:06:23;;;;;;;6.93;4.30;;;5.50;99.90;;;;;;5051636;28;20417;-82
2022/02/20 03:08:49;;;;;;;8.47;5.43;;;5.40;99.90;;;;;;5052908;28;20432;-82
2022/02/20 03:11:15;;;;;;;10.77;5.00;;;5.40;99.90;;;;;;5052956;28;20920;-82
2022/02/20 03:13:41;;;;;;;7.13;3.90;;;5.40;99.90;;;;;;5051745;28;20477;-82
2022/02/20 03:16:07;;;;;;;7.50;4.70;;;5.30;99.90;;;;;;5051473;28;20175;-82
2022/02/20 03:18:33;;;;;;;6.80;4.53;;;5.30;99.90;;;;;;5051231;28;20538;-82
2022/02/20 03:20:59;;;;;;;9.17;5.17;;;5.30;99.90;;;;;;5051521;28;20188;-82
2022/02/20 03:23:25;;;;;;;11.70;5.03;;;5.20;99.90;;;;;;5052562;28;20219;-82
2022/02/20 03:25:51;;;;;;;11.07;5.60;;;5.20;99.90;;;;;;5052618;28;21147;-82
2022/02/20 03:28:17;;;;;;;7.10;4.40;;;5.20;99.90;;;;;;5051056;28;20690;-82
2022/02/20 03:30:43;;;;;;;7.50;5.30;;;5.20;99.90;;;;;;5051362;28;20917;-82
2022/02/20 03:33:08;;;;;;;7.40;4.20;;;5.20;99.90;;;;;;5051329;28;20451;-82
2022/02/20 03:35:34;;;;;;;10.43;5.90;;;5.30;99.90;;;;;;5051279;28;20179;-82
2022/02/20 03:37:59;;;;;;;6.07;4.40;;;5.30;99.90;;;;;;5051038;28;20638;-83
2022/02/20 03:40:25;;;;;;;9.97;5.30;;;5.30;99.90;;;;;;5052431;28;20651;-82
2022/02/20 03:42:51;;;;;;;8.07;5.17;;;5.30;99.90;;;;;;5051063;28;20213;-82
2022/02/20 03:45:17;;;;;;;10.50;5.50;;;5.20;99.90;;;;;;5050920;28;20179;-83
2022/02/20 03:47:43;;;;;;;12.77;4.97;;;5.20;99.90;;;;;;5051960;28;20239;-82
2022/02/20 03:50:09;;;;;;;7.77;5.07;;;5.20;99.90;;;;;;5052151;28;20910;-82
2022/02/20 03:52:35;;;;;;;9.00;5.23;;;5.30;99.90;;;;;;5050912;28;20854;-82
2022/02/20 03:55:02;;;;;;;7.10;4.40;;;5.30;99.90;;;;;;5050377;28;20419;-82
2022/02/20 03:57:32;;;;;;;6.20;4.53;;;5.30;99.90;;;;;;5050385;28;20435;-82
2022/02/20 04:00:02;;;;;;;7.97;4.33;;;5.30;99.90;;;;;;5052082;28;20423;-83
2022/02/20 04:02:30;;;;;;;8.43;3.93;;;5.30;99.90;;;;;;5050867;28;20468;-82
2022/02/20 04:04:57;;;;;;;6.83;4.97;;;5.30;99.90;;;;;;5052277;28;20570;-83
2022/02/20 04:07:23;;;;;;;8.20;4.70;;;5.20;99.90;;;;;;5050160;28;20469;-82
2022/02/20 04:09:49;;;;;;;9.00;5.47;;;5.20;99.90;;;;;;5050803;28;20419;-82
2022/02/20 04:12:15;;;;;;;6.93;4.50;;;5.20;99.90;;;;;;5050711;28;20181;-82
2022/02/20 04:14:41;;;;;;;6.20;4.43;;;5.10;99.90;;;;;;5051979;28;20422;-82
2022/02/20 04:17:06;;;;;;;7.83;4.27;;;5.00;99.90;;;;;;5051369;28;20787;-82
2022/02/20 04:19:32;;;;;;;7.00;3.63;;;5.00;99.90;;;;;;5050658;28;20190;-82
2022/02/20 04:21:57;;;;;;;7.87;4.53;;;5.00;99.90;;;;;;5051807;28;20541;-82
2022/02/20 04:24:23;;;;;;;11.30;4.80;;;5.00;99.90;;;;;;5050543;28;20214;-82
2022/02/20 04:26:49;;;;;;;6.50;4.20;;;5.00;99.90;;;;;;5049974;28;20706;-82
2022/02/20 04:29:15;;;;;;;6.80;4.43;;;5.00;99.90;;;;;;5050739;28;20236;-82
2022/02/20 04:31:41;;;;;;;6.90;3.70;;;5.00;99.90;;;;;;5051797;28;20179;-82
2022/02/20 04:34:07;;;;;;;5.20;3.40;;;5.00;99.90;;;;;;5050431;28;20431;-83
2022/02/20 04:36:35;;;;;;;9.73;3.93;;;5.00;99.90;;;;;;5050179;28;20285;-82
2022/02/20 04:39:05;;;;;;;8.50;3.90;;;4.90;99.90;;;;;;5050441;28;20190;-83
2022/02/20 04:41:30;;;;;;;9.17;4.67;;;4.90;99.90;;;;;;5050522;28;20423;-82
2022/02/20 04:43:56;;;;;;;6.40;4.30;;;4.80;99.90;;;;;;5050207;28;20466;-82
2022/02/20 04:46:22;;;;;;;8.10;4.00;;;4.90;99.90;;;;;;5051357;28;20172;-82
2022/02/20 04:48:48;;;;;;;7.70;5.30;;;4.90;99.90;;;;;;5050067;28;20983;-82
2022/02/20 04:51:13;;;;;;;13.40;5.50;;;4.90;99.90;;;;;;5051574;28;20172;-82
2022/02/20 04:53:39;;;;;;;8.00;5.10;;;5.00;99.90;;;;;;5050187;28;20191;-82
2022/02/20 04:56:05;;;;;;;8.40;5.10;;;5.00;99.90;;;;;;5051399;28;20188;-82
2022/02/20 04:58:31;;;;;;;8.80;4.90;;;5.10;99.90;;;;;;5051131;28;20209;-82
2022/02/20 05:00:56;;;;;;;8.77;4.47;;;5.20;99.90;;;;;;5051250;28;20426;-82
2022/02/20 05:03:22;;;;;;;8.50;4.77;;;5.30;99.90;;;;;;5049985;28;20877;-82
2022/02/20 05:05:47;;;;;;;10.63;5.50;;;5.30;99.90;;;;;;5049993;28;20186;-82
2022/02/20 05:08:13;;;;;;;8.17;4.87;;;5.40;99.90;;;;;;5053427;28;20226;-82
2022/02/20 05:10:39;;;;;;;7.80;4.77;;;5.50;99.90;;;;;;5053758;28;20184;-82
2022/02/20 05:13:04;;;;;;;10.50;4.40;;;5.50;99.90;;;;;;5053773;28;20607;-82
2022/02/20 05:15:30;;;;;;;6.80;4.33;;;5.60;99.90;;;;;;5053568;28;20181;-82
2022/02/20 05:17:55;;;;;;;6.37;3.87;;;5.60;99.90;;;;;;5053368;28;20262;-82
2022/02/20 05:20:21;;;;;;;8.40;4.63;;;5.70;99.90;;;;;;5054807;28;20187;-82
2022/02/20 05:22:47;;;;;;;8.60;3.97;;;5.70;99.90;;;;;;5053464;28;20188;-82
2022/02/20 05:25:13;;;;;;;9.13;4.40;;;5.70;99.90;;;;;;5053523;28;20831;-82
2022/02/20 05:27:42;;;;;;;6.70;4.07;;;5.80;99.90;;;;;;5052951;28;20566;-82
2022/02/20 05:30:09;;;;;;;6.50;3.67;;;5.80;99.90;;;;;;5054648;28;20422;-82
2022/02/20 05:32:35;;;;;;;9.30;3.50;;;5.90;99.90;;;;;;5053316;28;20502;-82
2022/02/20 05:35:00;;;;;;;5.77;3.73;;;6.00;99.90;;;;;;5054664;28;20850;-82
2022/02/20 05:37:26;;;;;;;12.30;4.67;;;6.00;99.90;;;;;;5054057;28;20715;-82
2022/02/20 05:39:52;;;;;;;6.20;3.37;;;6.00;99.90;;;;;;5053232;28;20273;-82
2022/02/20 05:42:18;;;;;;;6.40;3.50;;;6.10;99.90;;;;;;5054339;28;20183;-82
2022/02/20 05:44:44;;;;;;;6.30;3.57;;;6.10;99.90;;;;;;5053041;28;20468;-81
2022/02/20 05:47:10;;;;;;;8.23;3.63;;;6.20;99.90;;;;;;5052563;28;20709;-82
2022/02/20 05:49:35;;;;;;;8.40;3.73;;;6.20;99.90;;;;;;5054346;28;20174;-82
2022/02/20 05:52:01;;;;;;;7.13;4.00;;;6.30;99.90;;;;;;5054196;28;20407;-82
2022/02/20 05:54:27;;;;;;;6.77;2.97;;;6.30;99.90;;;;;;5054320;28;20205;-81
2022/02/20 05:56:53;;;;;;;6.13;3.27;;;6.30;99.90;;;;;;5052460;28;20530;-81
2022/02/20 05:59:18;;;;;;;8.93;3.77;;;6.30;99.90;;;;;;5052776;28;20282;-82
2022/02/20 06:01:44;;;;;;;6.67;3.20;;;6.40;99.90;;;;;;5054048;28;20274;-82
2022/02/20 06:04:09;;;;;;;4.77;2.70;;;6.30;99.90;;;;;;5053907;28;20589;-82
2022/02/20 06:06:35;;;;;;;7.40;3.27;;;6.40;99.90;;;;;;5052168;28;20196;-81
2022/02/20 06:09:00;;;;;;;6.27;2.87;;;6.30;99.90;;;;;;5052634;28;20177;-82
2022/02/20 06:11:27;;;;;;;10.67;3.73;;;6.30;99.90;;;;;;5053992;28;20223;-81
2022/02/20 06:13:53;;;;;;;7.20;3.20;;;6.20;99.90;;;;;;5053673;28;20178;-82
2022/02/20 06:16:18;;;;;;;8.83;3.30;;;6.30;99.90;;;;;;5052298;28;20952;-81
2022/02/20 06:18:45;;;;;;;6.10;2.47;;;6.30;99.90;;;;;;5053293;28;20184;-81
2022/02/20 06:21:12;;;;;;;7.07;3.80;;;6.30;99.90;;;;;;5052384;28;20418;-81
2022/02/20 06:23:37;;;;;;;9.43;3.53;;;6.20;99.90;;;;;;5053684;28;20843;-81
2022/02/20 06:26:03;;;;;;;9.50;3.20;;;6.30;99.90;;;;;;5052108;28;20434;-81
2022/02/20 06:28:29;;;;;;;8.33;2.93;;;6.30;99.90;;;;;;5051951;28;20219;-81
2022/02/20 06:30:55;;;;;;;8.97;3.40;;;6.20;99.90;;;;;;5053447;28;20181;-81
2022/02/20 06:33:20;;;;;;;8.47;3.60;;;6.20;99.90;;;;;;5053531;28;20411;-81
2022/02/20 06:35:46;;;;;;;4.60;3.13;;;6.20;99.90;;;;;;5053179;28;20262;-81
2022/02/20 06:38:12;;;;;;;8.90;3.17;;;6.20;99.90;;;;;;5051893;28;20205;-80
2022/02/20 06:40:37;;;;;;;5.33;3.03;;;6.20;99.90;;;;;;5053297;28;20263;-81
2022/02/20 06:43:03;;;;;;;10.90;3.83;;;6.30;99.90;;;;;;5053236;28;20187;-81
2022/02/20 06:45:28;;;;;;;10.60;3.37;;;6.30;99.90;;;;;;5053218;28;20180;-81
2022/02/20 06:47:54;;;;;;;7.80;3.10;;;6.30;99.90;;;;;;5052834;28;20653;-81
2022/02/20 06:50:20;;;;;;;9.43;2.60;;;6.30;99.90;;;;;;5053225;28;20174;-80
2022/02/20 06:52:46;;;;;;;5.37;2.50;;;6.40;99.90;;;;;;5053107;28;20228;-80
2022/02/20 06:55:12;;;;;;;8.77;3.67;;;6.40;99.90;;;;;;5053043;28;20228;-80
2022/02/20 06:57:38;;;;;;;7.30;3.27;;;6.40;99.90;;;;;;5052451;28;20435;-81
2022/02/20 07:00:07;;;;;;;5.93;3.60;;;6.50;99.90;;;;;;5051732;28;20422;-81
2022/02/20 07:02:34;;;;;;;8.50;3.30;;;6.50;99.90;;;;;;5051671;28;20421;-81
2022/02/20 07:05:00;;;;;;;6.47;3.10;;;6.50;99.90;;;;;;5053312;28;20494;-81
2022/02/20 07:07:25;;;;;;;8.63;2.87;;;6.60;99.90;;;;;;5052376;28;20453;-81
2022/02/20 07:09:51;;;;;;;7.13;3.10;;;6.60;99.90;;;;;;5075712;22;20275;-77
2022/02/20 07:12:17;;;;;;;10.33;3.47;;;6.60;99.90;;;;;;5052886;28;20269;-77
2022/02/20 07:14:42;;;;;;;7.33;2.80;;;6.60;99.90;;;;;;5053786;28;20202;-78
2022/02/20 07:17:08;;;;;;;5.63;2.80;;;6.70;99.90;;;;;;5054287;28;20476;-80
2022/02/20 07:19:34;;;;;;;10.40;2.97;;;6.70;99.90;;;;;;5053911;28;20189;-79
2022/02/20 07:22:00;;;;;;;6.63;2.90;;;6.80;99.90;;;;;;5052912;28;20191;-79
2022/02/20 07:24:25;;;;;;;6.10;2.77;;;7.00;99.90;;;;;;5052247;28;20217;-78
2022/02/20 07:26:52;;;;;;;9.70;3.40;;;7.00;99.90;;;;;;5051782;28;20199;-78
2022/02/20 07:29:18;;;;;;;5.97;2.53;;;7.00;99.90;;;;;;5051169;28;20615;-78
2022/02/20 07:31:44;;;;;;;9.40;3.33;;;7.20;99.90;;;;;;5052361;28;20454;-78
2022/02/20 07:34:10;;;;;;;8.43;2.40;;;7.30;99.90;;;;;;5053361;28;20517;-79
2022/02/20 07:36:41;;;;;;;6.90;2.40;;;7.40;99.90;;;;;;5053977;28;20438;-78
2022/02/20 07:39:11;;;;;;;8.17;3.00;;;7.60;99.90;;;;;;5053533;28;20545;-78
2022/02/20 07:41:38;;;;;;;6.20;2.17;;;7.70;99.90;;;;;;5054670;28;20939;-79
2022/02/20 07:44:04;;;;;;;6.67;2.23;;;7.70;99.90;;;;;;5055466;28;20824;-79
2022/02/20 07:46:31;;;;;;;11.03;2.60;;;7.80;99.90;;;;;;5054737;28;20468;-78
2022/02/20 07:48:59;;;;;;;6.10;2.10;;;7.80;99.90;;;;;;5054483;28;20465;-79
2022/02/20 07:51:26;;;;;;;7.23;2.63;;;7.90;99.90;;;;;;5055149;28;20492;-78
2022/02/20 07:53:52;;;;;;;3.40;1.57;;;7.90;99.90;;;;;;5054416;28;20428;-79
2022/02/20 07:56:18;;;;;;;6.10;1.60;;;7.90;99.90;;;;;;5054334;28;20435;-79
2022/02/20 07:58:45;;;;;;;5.27;1.93;;;8.00;99.90;;;;;;5053859;28;20584;-77
2022/02/20 08:01:11;;;;;;;6.13;1.97;;;8.00;99.90;;;;;;5052991;28;20429;-78
2022/02/20 08:03:37;;;;;;;5.03;1.80;;;8.10;99.90;;;;;;5053176;28;20987;-78
2022/02/20 08:06:07;;;;;;;4.00;1.70;;;8.10;99.90;;;;;;5053605;28;20446;-78
2022/02/20 08:08:33;;;;;;;5.60;2.17;;;8.10;99.90;;;;;;5053452;28;20418;-77
2022/02/20 08:11:00;;;;;;;2.90;1.60;;;8.10;99.90;;;;;;5053009;28;20509;-78
2022/02/20 08:13:26;;;;;;;4.37;1.63;;;8.10;99.90;;;;;;5053117;28;20430;-77
2022/02/20 08:15:53;;;;;;;2.90;1.50;;;8.20;99.90;;;;;;5053717;28;20526;-78
2022/02/20 08:18:19;;;;;;;7.90;1.80;;;8.20;99.90;;;;;;5052388;28;20422;-78
2022/02/20 08:20:45;;;;;;;4.40;2.07;;;8.20;99.90;;;;;;5052905;28;20425;-79
2022/02/20 08:23:13;;;;;;;3.60;1.80;;;8.30;99.90;;;;;;5053307;28;20454;-78
2022/02/20 08:25:40;;;;;;;5.20;1.87;;;8.20;99.90;;;;;;5053245;28;20426;-79
2022/02/20 08:28:06;;;;;;;3.23;1.47;;;8.30;99.90;;;;;;5052897;28;20418;-79
2022/02/20 08:30:32;;;;;;;4.60;1.70;;;8.30;99.90;;;;;;5052999;28;20925;-78
2022/02/20 08:32:58;;;;;;;2.80;1.20;;;8.40;99.90;;;;;;5052443;28;20417;-77
2022/02/20 08:35:24;;;;;;;4.83;1.67;;;8.40;99.90;;;;;;5052860;28;20519;-78
2022/02/20 08:37:50;;;;;;;4.50;1.60;;;8.40;99.90;;;;;;5053420;28;20179;-78
2022/02/20 08:40:18;;;;;;;3.50;1.90;;;8.50;99.90;;;;;;5053369;28;20422;-79
2022/02/20 08:42:45;;;;;;;2.97;1.27;;;8.50;99.90;;;;;;5057335;28;20426;-78
2022/02/20 08:45:14;;;;;;;5.43;1.60;;;8.50;99.90;;;;;;5056696;28;20469;-78
2022/02/20 08:47:40;;;;;;;5.03;1.50;;;8.50;99.90;;;;;;5056006;28;20444;-78
2022/02/20 08:50:09;;;;;;;3.97;1.50;;;8.60;99.90;;;;;;5057040;28;20865;-77
2022/02/20 08:52:36;;;;;;;3.63;2.13;;;8.70;99.90;;;;;;5056906;28;20429;-78
2022/02/20 08:55:02;;;;;;;2.53;1.40;;;8.70;99.90;;;;;;5056432;28;20429;-78
2022/02/20 08:57:28;;;;;;;3.40;1.43;;;8.70;99.90;;;;;;5056536;28;20495;-78
2022/02/20 08:59:55;;;;;;;3.17;1.10;;;8.80;99.90;;;;;;5057200;28;20418;-78
2022/02/20 09:02:21;;;;;;;4.27;1.27;;;8.80;99.90;;;;;;5056171;28;20448;-77
2022/02/20 09:04:47;;;;;;;3.53;1.30;;;8.80;99.90;;;;;;5056814;28;20457;-78
2022/02/20 09:07:13;;;;;;;4.13;1.53;;;8.90;99.90;;;;;;5055700;28;20446;-77
2022/02/20 09:09:39;;;;;;;3.47;1.50;;;8.90;99.90;;;;;;5055091;28;20821;-76
2022/02/20 09:12:05;;;;;;;4.33;1.30;;;9.00;99.90;;;;;;5055388;28;20516;-78
2022/02/20 09:14:31;;;;;;;2.83;1.07;;;9.10;99.90;;;;;;5056080;28;20281;-77
2022/02/20 09:16:58;;;;;;;3.17;1.60;;;9.10;99.90;;;;;;5056722;28;20847;-78
2022/02/20 09:19:23;;;;;;;4.33;1.33;;;9.10;99.90;;;;;;5057125;28;20418;-77
2022/02/20 09:21:49;;;;;;;4.10;1.30;;;9.20;99.90;;;;;;5056151;28;20514;-78
2022/02/20 09:24:15;;;;;;;2.10;0.87;;;9.20;99.90;;;;;;5055659;28;20216;-78
2022/02/20 09:26:44;;;;;;;2.37;0.93;;;9.30;99.90;;;;;;5055844;28;20200;-77
2022/02/20 09:29:10;;;;;;;3.40;1.43;;;9.30;99.90;;;;;;5055929;28;20211;-77
2022/02/20 09:31:36;;;;;;;4.60;2.60;;;9.40;99.90;;;;;;5056512;28;20418;-78
2022/02/20 09:34:02;;;;;;;3.20;1.33;;;9.50;99.90;;;;;;5056384;28;20428;-78
2022/02/20 09:36:28;;;;;;;3.60;1.07;;;9.50;99.90;;;;;;5050320;28;20458;-79
2022/02/20 09:38:55;;;;;;;3.30;1.30;;;9.60;99.90;;;;;;5036124;28;20287;-78
2022/02/20 09:41:28;;;;;;;3.27;1.40;;;9.80;99.90;;;;;;5036089;28;20424;-78
2022/02/20 09:43:58;;;;;;;3.60;1.30;;;9.90;99.90;;;;;;5035580;28;20475;-79
2022/02/20 09:46:25;;;;;;;3.60;1.37;;;9.90;99.90;;;;;;5049419;28;20514;-77
2022/02/20 09:48:53;;;;;;;2.87;1.23;;;10.00;99.90;;;;;;5055269;28;20457;-78
2022/02/20 09:51:19;;;;;;;5.80;1.63;;;10.00;99.90;;;;;;5049504;28;21216;-78
2022/02/20 09:53:46;;;;;;;3.67;1.60;;;10.00;99.90;;;;;;5054089;28;20554;-78
2022/02/20 09:56:13;;;;;;;3.40;1.90;;;10.00;99.90;;;;;;5055227;28;20446;-77
2022/02/20 09:58:39;;;;;;;3.00;1.30;;;10.00;99.90;;;;;;5055370;28;20410;-78
2022/02/20 10:01:07;;;;;;;3.53;1.17;;;10.00;99.90;;;;;;5056041;28;20521;-78
2022/02/20 10:03:39;;;;;;;5.70;1.67;;;10.00;99.90;;;;;;5055716;28;20458;-78
2022/02/20 10:06:09;;;;;;;4.20;1.50;;;10.10;99.90;;;;;;5054606;28;20434;-78
2022/02/20 10:08:46;;;;;;;3.97;1.30;;;10.10;99.90;;;;;;5055118;28;20422;-78
2022/02/20 10:11:29;;;;;;;2.83;1.50;;;10.10;99.90;;;;;;5054796;28;20483;-79
2022/02/20 10:14:04;;;;;;;3.70;1.40;;;10.10;99.90;;;;;;5054611;28;20430;-78
2022/02/20 10:16:32;;;;;;;6.03;1.60;;;10.10;99.90;;;;;;5054913;28;20496;-79
2022/02/20 10:18:59;;;;;;;3.37;1.30;;;10.20;99.90;;;;;;5055116;28;20457;-78
2022/02/20 10:21:28;;;;;;;3.47;1.50;;;10.30;99.90;;;;;;5054663;28;20419;-79
2022/02/20 10:23:56;;;;;;;6.13;1.93;;;10.40;99.90;;;;;;5056570;28;20501;-79
2022/02/20 10:26:24;;;;;;;2.80;1.50;;;10.50;99.90;;;;;;5056451;28;20441;-78
2022/02/20 10:29:02;;;;;;;5.17;1.60;;;10.60;99.90;;;;;;5077519;28;20436;-79
2022/02/20 10:31:51;;;;;;;3.10;1.20;;;10.60;99.90;;;;;;5057400;28;20478;-79
2022/02/20 10:34:25;;;;;;;3.87;1.20;;;10.50;99.90;;;;;;5055522;28;20425;-78
2022/02/20 10:36:55;;;;;;;2.90;1.50;;;10.60;99.90;;;;;;5054048;28;20896;-78
2022/02/20 10:39:34;;;;;;;2.93;1.20;;;10.70;99.90;;;;;;5055207;28;20461;-78
2022/02/20 10:42:14;;;;;;;5.20;1.63;;;11.00;99.90;;;;;;5054901;28;20407;-78
2022/02/20 10:44:51;;;;;;;2.73;1.20;;;10.80;99.90;;;;;;5055625;28;20464;-78
2022/02/20 10:47:18;;;;;;;5.53;1.10;;;10.80;99.90;;;;;;5054337;28;20469;-78
2022/02/20 10:49:44;;;;;;;3.23;1.77;;;10.80;99.90;;;;;;5055480;28;20786;-78
2022/02/20 10:52:24;;;;;;;3.57;1.17;;;10.70;99.90;;;;;;5054726;28;20414;-78
2022/02/20 10:55:08;;;;;;;3.90;1.40;;;10.70;99.90;;;;;;5054477;28;20184;-78
2022/02/20 10:57:39;;;;;;;3.40;1.30;;;10.70;99.90;;;;;;5054578;28;20449;-78
2022/02/20 11:00:12;;;;;;;2.37;1.00;;;10.80;99.90;;;;;;5054435;28;20422;-78
2022/02/20 11:02:38;;;;;;;3.80;1.20;;;10.90;99.90;;;;;;5054373;28;20418;-78
2022/02/20 11:05:05;;;;;;;2.87;1.00;;;11.10;99.90;;;;;;5054045;28;20476;-78
2022/02/20 11:07:34;;;;;;;2.80;1.00;;;11.20;99.90;;;;;;5054842;28;20501;-78
2022/02/20 11:10:00;;;;;;;4.10;1.20;;;11.20;99.90;;;;;;5055060;28;20445;-78
2022/02/20 11:12:28;;;;;;;2.90;1.10;;;11.20;99.90;;;;;;5055603;28;20427;-78
2022/02/20 11:14:54;;;;;;;7.10;1.50;;;11.20;99.90;;;;;;5055484;28;20811;-78
2022/02/20 11:17:21;;;;;;;3.70;1.40;;;11.20;99.90;;;;;;5055242;28;20985;-78
2022/02/20 11:19:50;;;;;;;4.13;1.20;;;11.20;99.90;;;;;;5055998;28;20472;-79
2022/02/20 11:22:20;;;;;;;2.70;1.20;;;11.00;99.90;;;;;;5055139;28;20471;-78
2022/02/20 11:24:49;;;;;;;5.50;1.20;;;11.10;99.90;;;;;;5054819;28;20489;-78
2022/02/20 11:27:16;;;;;;;7.03;1.50;;;11.10;99.90;;;;;;5054061;28;20819;-78
2022/02/20 11:29:42;;;;;;;3.57;1.40;;;11.00;99.90;;;;;;5054592;28;20418;-78
2022/02/20 11:32:09;;;;;;;4.50;1.77;;;11.00;99.90;;;;;;5054701;28;20444;-78
2022/02/20 11:34:43;;;;;;;3.00;1.60;;;10.90;99.90;;;;;;5055267;28;20430;-78
2022/02/20 11:37:10;;;;;;;3.00;1.60;;;10.90;99.90;;;;;;5054596;28;20438;-78
2022/02/20 11:39:36;;;;;;;3.73;1.47;;;10.90;99.90;;;;;;5055207;28;20422;-79
2022/02/20 11:42:10;;;;;;;4.20;1.60;;;10.90;99.90;;;;;;5054885;28;20423;-78
2022/02/20 11:45:03;;;;;;;4.43;1.57;;;10.80;99.90;;;;;;5054113;28;20551;-78
2022/02/20 11:47:35;;;;;;;4.77;1.70;;;10.90;99.90;;;;;;5053630;28;20446;-78
2022/02/20 11:50:27;;;;;;;6.70;1.67;;;10.90;99.90;;;;;;5054244;28;20472;-78
2022/02/20 11:52:59;;;;;;;6.67;1.60;;;11.00;99.90;;;;;;5045440;28;20418;-78
2022/02/20 11:55:32;;;;;;;3.70;1.70;;;11.00;99.90;;;;;;5053826;28;20471;-78
2022/02/20 11:58:23;;;;;;;8.90;4.33;;;11.10;99.90;;;;;;5054394;28;20786;-78
2022/02/20 12:00:55;;;;;;;3.57;1.40;;;11.20;99.90;;;;;;5053397;28;20418;-78
2022/02/20 12:03:23;;;;;;;3.90;1.53;;;11.10;99.90;;;;;;5054455;28;20458;-78
2022/02/20 12:06:07;;;;;;;5.93;1.60;;;11.20;99.90;;;;;;5053242;28;20442;-78
2022/02/20 12:08:35;;;;;;;7.23;1.80;;;11.20;99.90;;;;;;5053487;28;20448;-78
2022/02/20 12:11:20;;;;;;;5.40;1.70;;;11.20;99.90;;;;;;5053163;28;20491;-78
2022/02/20 12:13:47;;;;;;;5.10;2.07;;;11.30;99.90;;;;;;5053140;28;20497;-78
2022/02/20 12:16:22;;;;;;;3.90;1.80;;;11.30;99.90;;;;;;5053368;28;20434;-78
2022/02/20 12:19:37;;;;;;;3.70;2.00;;;11.20;99.90;;;;;;5053314;28;20422;-79
2022/02/20 12:22:26;;;;;;;3.90;1.60;;;11.10;99.90;;;;;;5036018;28;20425;-81
2022/02/20 12:24:54;;;;;;;7.17;2.00;;;11.10;99.90;;;;;;5035409;28;20522;-79
2022/02/20 12:27:24;;;;;;;7.90;1.70;;;11.10;99.90;;;;;;5047515;28;20811;-79
2022/02/20 12:29:53;;;;;;;4.97;2.00;;;11.00;99.90;;;;;;5054211;28;20484;-79
2022/02/20 12:32:29;;;;;;;13.00;2.43;;;11.00;99.90;;;;;;5053584;28;20421;-78
2022/02/20 12:35:00;;;;;;;7.70;2.00;;;10.90;99.90;;;;;;5053228;28;20422;-79
2022/02/20 12:37:44;;;;;;;5.00;2.27;;;10.90;99.90;;;;;;5052156;28;21016;-79
2022/02/20 12:40:34;;;;;;;8.20;2.70;;;10.80;99.90;;;;;;5052915;28;20426;-79
2022/02/20 12:43:07;;;;;;;4.90;2.60;;;10.70;99.90;;;;;;5052947;28;20953;-80
2022/02/20 12:45:35;;;;;;;6.53;2.43;;;10.70;99.90;;;;;;5053217;28;20422;-78
2022/02/20 12:48:07;;;;;;;7.70;2.40;;;10.60;99.90;;;;;;5053049;28;20433;-78
2022/02/20 12:50:42;;;;;;;7.07;2.30;;;10.60;99.90;;;;;;5054238;28;20422;-79
2022/02/20 12:53:09;;;;;;;10.97;3.33;;;10.50;99.90;;;;;;5053908;28;20430;-78
2022/02/20 12:55:37;;;;;;;9.90;2.60;;;10.50;99.90;;;;;;5052527;28;20849;-80